Portada
METAR-TAF:

METAR-TAF

Aeroports :

Aeroport Internacional de Tunis

Tunis, Tunísia

latitud: 36-50N, longitud: 010-14E, altitud: 3 m

Observació

L'informe es va fer fa 40 minuts, a les 22:30 UTC
Vent 5 kt del Oest/Sud-Oest, variant entre Sud/Sud-Oest i Oest/Nord-Oest
Temperatura 16°C
Humitat 45%
Pressió 1016 hPa
Visibilitat 10 km o més
sense núvols per sota de 1500 mi sense presència de cumulonimbus.

METAR: DTTA 252230Z 24005KT 200V290 CAVOK 16/04 Q1016

Hora: 00:10 (23:10 UTC)

Pronòstic

L'informe es va fer fa 6 hores i 10 minuts, a les 17:00 UTC
Pronòstic vàlid del 25 a les 18 UTC al 26 a les 18 UTC
Vent 5 kt del Est/Sud-Est
Visibilitat 10 km o més
Escasses núvols a una alçada de 2600 ft
Evolucionant progressivament
l' 26 a les 07 UTC al 26 a les 09 UTC
Vent 12 kt del Oest
Evolucionant progressivament
l' 25 a les 14 UTC al 25 a les 16 UTC
Vent 15 kt del Oest/Nord-Oest amb ràfegues de 25 kt

TAF: DTTA 251700Z 2518/2618 11005KT 9999 FEW026 BECMG 2607/2609 27012KT BECMG 2514/2516 30015G25KT

Observacions i pronòstics meteorològics de més de 4000 aeroports (METAR i TAF).

Les estacions disponibles són els punts grocs i vermells al mapa.

Posi el ratolí al punt desitjat per veure el nom de l'estació.

Feu clic per veure les observacions i els pronòstics meteorològics.

Per canviar el mapa: feu clic els botons verds amb una creu de color negre per apropar; al botó verd amb un guió per allunyar la imatge; o en les fletxes verdes per a mapes adjacents.


METAR-TAF: